Time;durP1;ratioP1;P1;durP2;ratioP2;P2;SDS_P1;SDS_P2;PMS_P1;PMS_P2;Temp;Humidity;BMP_temperature;BMP_pressure;BME280_temperature;BME280_humidity;BME280_pressure;Samples;Min_cycle;Max_cycle;Signal;HPM_P1;HPM_P2
2022/02/24 00:00:12;;;;;;;8.88;4.53;;;;;;;;;;525326;28;1555;-77
2022/02/24 00:00:27;;;;;;;8.15;4.40;;;;;;;;;;527855;28;823;-76
2022/02/24 00:00:42;;;;;;;9.80;4.40;;;;;;;;;;526553;28;1136;-75
2022/02/24 00:00:58;;;;;;;10.20;4.60;;;;;;;;;;526869;28;1377;-76
2022/02/24 00:01:13;;;;;;;9.20;4.77;;;;;;;;;;527520;28;1241;-76
2022/02/24 00:01:28;;;;;;;8.18;4.60;;;;;;;;;;523827;28;1289;-76
2022/02/24 00:01:43;;;;;;;7.47;4.30;;;;;;;;;;523889;28;1362;-75
2022/02/24 00:01:59;;;;;;;6.37;4.10;;;;;;;;;;522270;28;1138;-76
2022/02/24 00:02:14;;;;;;;6.97;4.30;;;;;;;;;;522778;28;1137;-77
2022/02/24 00:02:29;;;;;;;7.80;4.20;;;;;;;;;;523985;28;1008;-75
2022/02/24 00:02:45;;;;;;;7.93;4.10;;;;;;;;;;524052;28;811;-75
2022/02/24 00:03:00;;;;;;;7.95;4.20;;;;;;;;;;523917;28;737;-75
2022/02/24 00:03:15;;;;;;;8.00;4.20;;;;;;;;;;521541;28;946;-76
2022/02/24 00:03:33;;;;;;;7.87;4.17;;;;;;;;;;520164;28;1324;-77
2022/02/24 00:03:48;;;;;;;7.57;4.10;;;;;;;;;;522563;28;765;-78
2022/02/24 00:04:03;;;;;;;8.53;4.40;;;;;;;;;;524118;28;728;-76
2022/02/24 00:04:18;;;;;;;8.03;4.37;;;;;;;;;;523917;28;1243;-77
2022/02/24 00:04:34;;;;;;;7.60;4.20;;;;;;;;;;524716;28;769;-76
2022/02/24 00:04:49;;;;;;;9.30;4.27;;;;;;;;;;526205;28;1988;-78
2022/02/24 00:05:06;;;;;;;10.15;4.40;;;;;;;;;;523602;28;1504;-76
2022/02/24 00:05:21;;;;;;;8.63;4.60;;;;;;;;;;525020;28;1354;-77
2022/02/24 00:05:36;;;;;;;8.10;4.60;;;;;;;;;;527454;28;736;-76
2022/02/24 00:05:53;;;;;;;9.50;4.68;;;;;;;;;;525891;28;752;-76
2022/02/24 00:06:08;;;;;;;9.50;4.63;;;;;;;;;;527004;28;811;-76
2022/02/24 00:06:24;;;;;;;7.80;4.60;;;;;;;;;;525979;28;1254;-76
2022/02/24 00:06:39;;;;;;;8.27;4.90;;;;;;;;;;526208;28;748;-75
2022/02/24 00:06:54;;;;;;;9.63;5.00;;;;;;;;;;526168;28;745;-76
2022/02/24 00:07:10;;;;;;;9.68;4.80;;;;;;;;;;526034;28;787;-76
2022/02/24 00:07:25;;;;;;;9.37;4.80;;;;;;;;;;523669;28;1104;-76
2022/02/24 00:07:41;;;;;;;8.33;4.67;;;;;;;;;;524075;28;772;-76
2022/02/24 00:07:58;;;;;;;8.25;4.53;;;;;;;;;;521771;28;1277;-76
2022/02/24 00:08:14;;;;;;;8.35;4.80;;;;;;;;;;522467;28;828;-76
2022/02/24 00:08:29;;;;;;;7.78;4.90;;;;;;;;;;524162;28;847;-76
2022/02/24 00:08:44;;;;;;;9.73;5.00;;;;;;;;;;525062;28;1506;-75
2022/02/24 00:08:59;;;;;;;10.87;5.20;;;;;;;;;;525842;28;1480;-75
2022/02/24 00:09:14;;;;;;;9.73;5.17;;;;;;;;;;525765;28;1383;-74
2022/02/24 00:09:30;;;;;;;9.23;4.90;;;;;;;;;;525525;28;1418;-73
2022/02/24 00:09:45;;;;;;;8.40;4.73;;;;;;;;;;526210;28;1461;-74
2022/02/24 00:10:00;;;;;;;7.85;4.93;;;;;;;;;;527430;28;1465;-75
2022/02/24 00:10:17;;;;;;;8.53;5.10;;;;;;;;;;525419;28;1248;-77
2022/02/24 00:10:32;;;;;;;8.90;4.80;;;;;;;;;;523924;28;1451;-77
2022/02/24 00:10:47;;;;;;;8.43;4.60;;;;;;;;;;521301;28;1492;-76
2022/02/24 00:11:03;;;;;;;8.13;4.80;;;;;;;;;;521673;28;1425;-76
2022/02/24 00:11:18;;;;;;;7.83;4.77;;;;;;;;;;521993;28;1507;-77
2022/02/24 00:11:35;;;;;;;7.60;4.73;;;;;;;;;;523312;28;1446;-76
2022/02/24 00:11:50;;;;;;;7.80;4.72;;;;;;;;;;522371;28;1538;-78
2022/02/24 00:12:06;;;;;;;7.70;4.87;;;;;;;;;;523256;28;1440;-77
2022/02/24 00:12:22;;;;;;;7.60;4.70;;;;;;;;;;523465;28;1459;-77
2022/02/24 00:12:39;;;;;;;8.27;4.60;;;;;;;;;;523360;28;1501;-77
2022/02/24 00:12:54;;;;;;;8.82;4.70;;;;;;;;;;524198;28;1431;-75
2022/02/24 00:13:09;;;;;;;8.50;4.60;;;;;;;;;;523606;28;1435;-75
2022/02/24 00:13:24;;;;;;;8.67;4.80;;;;;;;;;;521341;28;1404;-76
2022/02/24 00:13:40;;;;;;;8.37;4.77;;;;;;;;;;521235;28;1369;-76
2022/02/24 00:13:55;;;;;;;8.43;4.77;;;;;;;;;;521615;28;1488;-76
2022/02/24 00:14:10;;;;;;;8.70;4.90;;;;;;;;;;523227;28;1459;-76
2022/02/24 00:14:25;;;;;;;8.67;4.80;;;;;;;;;;521634;28;1444;-76
2022/02/24 00:14:41;;;;;;;9.07;4.77;;;;;;;;;;521600;28;2099;-76
2022/02/24 00:14:56;;;;;;;9.25;4.97;;;;;;;;;;521485;28;1488;-75
2022/02/24 00:15:12;;;;;;;8.50;4.90;;;;;;;;;;522320;28;1493;-76
2022/02/24 00:15:27;;;;;;;7.18;4.50;;;;;;;;;;523601;28;1494;-75
2022/02/24 00:15:43;;;;;;;6.73;4.53;;;;;;;;;;525256;28;1398;-75
2022/02/24 00:15:58;;;;;;;7.90;4.97;;;;;;;;;;520288;28;1372;-76
2022/02/24 00:16:13;;;;;;;9.27;5.13;;;;;;;;;;521675;28;1296;-76
2022/02/24 00:16:29;;;;;;;8.73;5.00;;;;;;;;;;520850;28;1338;-76
2022/02/24 00:16:44;;;;;;;8.15;4.88;;;;;;;;;;521342;28;1551;-75
2022/02/24 00:17:00;;;;;;;8.40;4.90;;;;;;;;;;521733;28;1474;-76
2022/02/24 00:17:15;;;;;;;10.07;5.18;;;;;;;;;;522543;28;1546;-76
2022/02/24 00:17:30;;;;;;;10.00;5.00;;;;;;;;;;521765;28;1479;-75
2022/02/24 00:17:45;;;;;;;9.50;4.80;;;;;;;;;;521384;28;1546;-77
2022/02/24 00:18:01;;;;;;;9.05;4.90;;;;;;;;;;523986;28;1527;-77
2022/02/24 00:18:16;;;;;;;8.30;4.77;;;;;;;;;;525796;28;1541;-77
2022/02/24 00:18:32;;;;;;;9.17;5.03;;;;;;;;;;525867;28;1450;-77
2022/02/24 00:18:47;;;;;;;9.45;5.25;;;;;;;;;;525419;28;1588;-76
2022/02/24 00:19:02;;;;;;;9.43;5.03;;;;;;;;;;525709;28;1482;-76
2022/02/24 00:19:18;;;;;;;9.70;5.10;;;;;;;;;;523308;28;1344;-76
2022/02/24 00:19:34;;;;;;;9.20;5.10;;;;;;;;;;525440;28;1406;-77
2022/02/24 00:19:49;;;;;;;7.70;4.65;;;;;;;;;;525983;28;1277;-77
2022/02/24 00:20:09;;;;;;;8.50;4.70;;;;;;;;;;523622;28;1602;-77
2022/02/24 00:20:24;;;;;;;8.95;4.80;;;;;;;;;;523929;28;1483;-77
2022/02/24 00:20:39;;;;;;;8.67;4.67;;;;;;;;;;525786;28;1378;-76
2022/02/24 00:20:55;;;;;;;9.07;4.82;;;;;;;;;;525538;28;1490;-76
2022/02/24 00:21:10;;;;;;;9.07;5.10;;;;;;;;;;525913;28;1284;-76
2022/02/24 00:21:25;;;;;;;9.63;5.20;;;;;;;;;;526504;28;1603;-75
2022/02/24 00:21:40;;;;;;;9.15;5.00;;;;;;;;;;528102;28;1445;-76
2022/02/24 00:21:56;;;;;;;8.00;4.83;;;;;;;;;;526149;28;1620;-76
2022/02/24 00:22:12;;;;;;;8.77;4.88;;;;;;;;;;527879;28;1457;-75
2022/02/24 00:22:27;;;;;;;8.67;5.00;;;;;;;;;;527763;28;1616;-75
2022/02/24 00:22:43;;;;;;;8.55;5.00;;;;;;;;;;525374;28;1426;-75
2022/02/24 00:22:58;;;;;;;8.40;4.80;;;;;;;;;;523289;28;1260;-76
2022/02/24 00:23:13;;;;;;;7.87;4.70;;;;;;;;;;523450;28;1444;-77
2022/02/24 00:23:29;;;;;;;8.52;4.80;;;;;;;;;;522671;28;1499;-76
2022/02/24 00:23:44;;;;;;;8.47;4.90;;;;;;;;;;523825;28;1489;-76
2022/02/24 00:23:59;;;;;;;8.48;4.93;;;;;;;;;;523472;28;1423;-76
2022/02/24 00:24:15;;;;;;;9.07;4.80;;;;;;;;;;523155;28;1447;-76
2022/02/24 00:24:31;;;;;;;10.23;4.70;;;;;;;;;;521499;28;1412;-77
2022/02/24 00:24:46;;;;;;;10.63;4.70;;;;;;;;;;521526;28;1969;-76
2022/02/24 00:25:03;;;;;;;10.57;4.70;;;;;;;;;;523672;28;1458;-76
2022/02/24 00:25:18;;;;;;;10.77;4.90;;;;;;;;;;524297;28;1398;-76
2022/02/24 00:25:33;;;;;;;8.52;4.68;;;;;;;;;;523888;28;1604;-77
2022/02/24 00:25:48;;;;;;;8.37;4.50;;;;;;;;;;523508;28;1464;-77
2022/02/24 00:26:04;;;;;;;8.53;4.50;;;;;;;;;;524623;28;1541;-77
2022/02/24 00:26:19;;;;;;;8.07;4.57;;;;;;;;;;523998;28;1522;-76
2022/02/24 00:26:34;;;;;;;8.68;5.07;;;;;;;;;;525727;28;1446;-77
2022/02/24 00:26:50;;;;;;;10.27;5.40;;;;;;;;;;525868;28;1560;-76
2022/02/24 00:27:05;;;;;;;10.03;5.10;;;;;;;;;;525652;28;1449;-78
2022/02/24 00:27:21;;;;;;;8.63;4.82;;;;;;;;;;525673;28;1401;-78
2022/02/24 00:27:37;;;;;;;9.70;4.90;;;;;;;;;;523323;28;1438;-78
2022/02/24 00:27:52;;;;;;;9.60;4.95;;;;;;;;;;523609;28;1435;-77
2022/02/24 00:28:07;;;;;;;9.50;5.00;;;;;;;;;;523382;28;1538;-76
2022/02/24 00:28:23;;;;;;;9.47;4.97;;;;;;;;;;523748;28;1465;-76
2022/02/24 00:28:38;;;;;;;8.90;4.88;;;;;;;;;;523739;28;1294;-77
2022/02/24 00:28:53;;;;;;;8.30;5.00;;;;;;;;;;523585;28;1499;-76
2022/02/24 00:29:09;;;;;;;8.33;5.07;;;;;;;;;;521392;28;1515;-76
2022/02/24 00:29:24;;;;;;;10.23;5.23;;;;;;;;;;524031;28;1514;-76
2022/02/24 00:29:39;;;;;;;9.80;5.07;;;;;;;;;;525820;28;1454;-77
2022/02/24 00:29:55;;;;;;;7.77;4.63;;;;;;;;;;521391;28;1492;-76
2022/02/24 00:30:11;;;;;;;8.53;4.63;;;;;;;;;;521720;28;1461;-76
2022/02/24 00:30:26;;;;;;;9.18;5.00;;;;;;;;;;523582;28;1410;-75
2022/02/24 00:30:41;;;;;;;8.43;5.00;;;;;;;;;;523693;28;1276;-76
2022/02/24 00:30:57;;;;;;;8.07;4.87;;;;;;;;;;523688;28;1474;-77
2022/02/24 00:31:12;;;;;;;8.10;4.90;;;;;;;;;;525761;28;1256;-76
2022/02/24 00:31:27;;;;;;;7.97;4.88;;;;;;;;;;525504;28;1430;-75
2022/02/24 00:31:43;;;;;;;7.70;4.70;;;;;;;;;;523858;28;1478;-75
2022/02/24 00:31:58;;;;;;;7.38;4.60;;;;;;;;;;521542;28;1534;-76
2022/02/24 00:32:14;;;;;;;8.07;4.80;;;;;;;;;;522124;28;1514;-77
2022/02/24 00:32:29;;;;;;;9.30;5.00;;;;;;;;;;519543;28;1437;-77
2022/02/24 00:32:44;;;;;;;9.50;5.03;;;;;;;;;;521293;28;1463;-75
2022/02/24 00:33:00;;;;;;;9.70;5.27;;;;;;;;;;521837;28;1558;-76
2022/02/24 00:33:15;;;;;;;9.77;5.10;;;;;;;;;;521797;28;1494;-76
2022/02/24 00:33:30;;;;;;;9.30;5.00;;;;;;;;;;521968;28;1467;-76
2022/02/24 00:33:45;;;;;;;8.57;4.90;;;;;;;;;;523757;28;1502;-77
2022/02/24 00:34:02;;;;;;;7.57;4.70;;;;;;;;;;523851;28;1526;-77
2022/02/24 00:34:22;;;;;;;7.95;4.70;;;;;;;;;;523402;28;1485;-75
2022/02/24 00:34:38;;;;;;;9.10;4.80;;;;;;;;;;525548;28;1077;-76
2022/02/24 00:34:53;;;;;;;10.10;4.93;;;;;;;;;;523417;28;1431;-77
2022/02/24 00:35:09;;;;;;;9.60;5.00;;;;;;;;;;522880;28;1493;-76
2022/02/24 00:35:24;;;;;;;7.78;4.82;;;;;;;;;;526198;28;1445;-76
2022/02/24 00:35:39;;;;;;;8.03;4.80;;;;;;;;;;525999;28;1334;-76
2022/02/24 00:35:55;;;;;;;8.20;4.68;;;;;;;;;;523084;28;1489;-76
2022/02/24 00:36:10;;;;;;;7.63;4.80;;;;;;;;;;522772;28;1324;-76
2022/02/24 00:36:25;;;;;;;8.30;4.83;;;;;;;;;;521106;28;1467;-77
2022/02/24 00:36:42;;;;;;;8.02;4.70;;;;;;;;;;521697;28;1570;-77
2022/02/24 00:36:57;;;;;;;8.13;4.80;;;;;;;;;;521212;28;1393;-76
2022/02/24 00:37:14;;;;;;;9.50;4.72;;;;;;;;;;521957;28;1512;-75
2022/02/24 00:37:30;;;;;;;9.20;4.88;;;;;;;;;;522694;28;1407;-76
2022/02/24 00:37:45;;;;;;;8.43;5.00;;;;;;;;;;523401;28;1499;-76
2022/02/24 00:38:00;;;;;;;8.47;4.90;;;;;;;;;;523859;28;1486;-77
2022/02/24 00:38:16;;;;;;;9.32;4.90;;;;;;;;;;523387;28;1499;-78
2022/02/24 00:38:31;;;;;;;8.80;4.60;;;;;;;;;;523893;28;1758;-77
2022/02/24 00:38:46;;;;;;;8.15;4.57;;;;;;;;;;525165;28;1458;-77
2022/02/24 00:39:03;;;;;;;8.63;4.60;;;;;;;;;;525697;28;1386;-77
2022/02/24 00:39:19;;;;;;;8.48;4.47;;;;;;;;;;525162;28;1303;-77
2022/02/24 00:39:35;;;;;;;6.95;4.30;;;;;;;;;;525716;28;1442;-78
2022/02/24 00:39:50;;;;;;;6.17;4.30;;;;;;;;;;527906;28;1191;-77
2022/02/24 00:40:06;;;;;;;7.03;4.40;;;;;;;;;;526844;28;1400;-77
2022/02/24 00:40:22;;;;;;;7.75;4.50;;;;;;;;;;524491;28;1420;-76
2022/02/24 00:40:37;;;;;;;7.67;4.60;;;;;;;;;;525283;28;1654;-76
2022/02/24 00:40:52;;;;;;;7.23;4.50;;;;;;;;;;527682;28;1172;-76
2022/02/24 00:41:07;;;;;;;6.70;4.40;;;;;;;;;;526747;28;1179;-76
2022/02/24 00:41:23;;;;;;;7.30;4.30;;;;;;;;;;523390;28;1157;-76
2022/02/24 00:41:38;;;;;;;7.67;4.40;;;;;;;;;;523661;28;942;-77
2022/02/24 00:41:53;;;;;;;7.32;4.50;;;;;;;;;;525508;28;1189;-77
2022/02/24 00:42:09;;;;;;;7.47;4.40;;;;;;;;;;522407;28;1119;-77
2022/02/24 00:42:25;;;;;;;7.07;4.30;;;;;;;;;;523527;28;1187;-76
2022/02/24 00:42:40;;;;;;;7.63;4.30;;;;;;;;;;523721;28;1236;-76
2022/02/24 00:42:55;;;;;;;8.75;4.38;;;;;;;;;;521238;28;1433;-77
2022/02/24 00:43:10;;;;;;;7.10;4.33;;;;;;;;;;522106;28;1099;-76
2022/02/24 00:43:26;;;;;;;6.27;4.43;;;;;;;;;;523670;28;1205;-76
2022/02/24 00:43:41;;;;;;;7.55;4.50;;;;;;;;;;521620;28;1190;-76
2022/02/24 00:43:56;;;;;;;8.03;4.30;;;;;;;;;;519792;28;1246;-76
2022/02/24 00:44:12;;;;;;;7.53;4.40;;;;;;;;;;521294;28;1145;-76
2022/02/24 00:44:27;;;;;;;8.75;4.68;;;;;;;;;;523541;28;1137;-76
2022/02/24 00:44:43;;;;;;;8.87;4.70;;;;;;;;;;523839;28;1189;-77
2022/02/24 00:44:58;;;;;;;7.57;4.35;;;;;;;;;;525041;28;1938;-76
2022/02/24 00:45:13;;;;;;;8.00;4.37;;;;;;;;;;521589;28;1468;-77
2022/02/24 00:45:30;;;;;;;7.60;4.33;;;;;;;;;;520817;28;1262;-77
2022/02/24 00:45:46;;;;;;;6.93;4.20;;;;;;;;;;520810;28;1235;-76
2022/02/24 00:46:01;;;;;;;8.20;4.40;;;;;;;;;;521573;28;1218;-77
2022/02/24 00:46:16;;;;;;;7.87;4.20;;;;;;;;;;521962;28;856;-77
2022/02/24 00:46:32;;;;;;;7.53;4.10;;;;;;;;;;522192;28;808;-77
2022/02/24 00:46:47;;;;;;;7.37;4.17;;;;;;;;;;522454;28;762;-77
2022/02/24 00:47:02;;;;;;;7.47;4.10;;;;;;;;;;523798;28;772;-77
2022/02/24 00:47:18;;;;;;;6.93;4.10;;;;;;;;;;526010;28;1128;-75
2022/02/24 00:47:33;;;;;;;5.55;4.10;;;;;;;;;;528555;28;898;-76
2022/02/24 00:47:48;;;;;;;6.50;4.10;;;;;;;;;;528023;28;1290;-77
2022/02/24 00:48:04;;;;;;;7.10;4.20;;;;;;;;;;524157;28;1170;-76
2022/02/24 00:48:19;;;;;;;6.70;4.20;;;;;;;;;;523989;28;1177;-76
2022/02/24 00:48:34;;;;;;;7.10;4.20;;;;;;;;;;523958;28;1178;-77
2022/02/24 00:48:49;;;;;;;7.53;4.20;;;;;;;;;;525767;28;1175;-77
2022/02/24 00:49:05;;;;;;;7.22;4.32;;;;;;;;;;525527;28;843;-78
2022/02/24 00:49:22;;;;;;;7.67;4.37;;;;;;;;;;525098;28;1826;-77
2022/02/24 00:49:37;;;;;;;8.20;4.28;;;;;;;;;;525861;28;1270;-77
2022/02/24 00:49:53;;;;;;;8.32;4.32;;;;;;;;;;527160;28;879;-75
2022/02/24 00:50:09;;;;;;;9.20;4.60;;;;;;;;;;526209;28;1601;-76
2022/02/24 00:50:25;;;;;;;8.48;4.60;;;;;;;;;;527468;28;1274;-77
2022/02/24 00:50:40;;;;;;;7.72;4.47;;;;;;;;;;526826;28;898;-76
2022/02/24 00:50:55;;;;;;;8.37;4.63;;;;;;;;;;526039;28;927;-76
2022/02/24 00:51:11;;;;;;;8.10;4.50;;;;;;;;;;526848;28;938;-76
2022/02/24 00:51:26;;;;;;;7.68;4.30;;;;;;;;;;528056;28;949;-76
2022/02/24 00:51:41;;;;;;;7.63;4.30;;;;;;;;;;528501;28;728;-76
2022/02/24 00:51:57;;;;;;;8.07;4.30;;;;;;;;;;528322;28;799;-76
2022/02/24 00:52:12;;;;;;;8.80;4.33;;;;;;;;;;528803;27;902;-76
2022/02/24 00:52:27;;;;;;;8.87;4.40;;;;;;;;;;527442;28;1448;-75
2022/02/24 00:52:43;;;;;;;8.18;4.47;;;;;;;;;;527200;28;1376;-75
2022/02/24 00:52:58;;;;;;;7.63;4.60;;;;;;;;;;526727;28;1360;-76
2022/02/24 00:53:13;;;;;;;7.70;4.77;;;;;;;;;;525711;28;768;-75
2022/02/24 00:53:29;;;;;;;8.83;4.70;;;;;;;;;;525702;28;1115;-77
2022/02/24 00:53:44;;;;;;;9.02;4.70;;;;;;;;;;525892;28;775;-75
2022/02/24 00:54:00;;;;;;;7.53;4.53;;;;;;;;;;526177;28;1216;-76
2022/02/24 00:54:15;;;;;;;7.53;4.47;;;;;;;;;;525840;28;958;-76
2022/02/24 00:54:30;;;;;;;8.07;4.47;;;;;;;;;;526067;28;775;-77
2022/02/24 00:54:48;;;;;;;8.60;4.47;;;;;;;;;;526099;28;1032;-76
2022/02/24 00:55:03;;;;;;;8.65;4.38;;;;;;;;;;525858;28;1428;-77
2022/02/24 00:55:18;;;;;;;7.95;4.18;;;;;;;;;;526697;28;1001;-77
2022/02/24 00:55:34;;;;;;;8.27;4.40;;;;;;;;;;526552;28;963;-76
2022/02/24 00:55:49;;;;;;;10.10;4.70;;;;;;;;;;527860;28;828;-76
2022/02/24 00:56:04;;;;;;;9.52;4.72;;;;;;;;;;525717;28;1158;-77
2022/02/24 00:56:20;;;;;;;9.20;4.70;;;;;;;;;;523888;28;1218;-76
2022/02/24 00:56:35;;;;;;;9.43;4.70;;;;;;;;;;524077;28;927;-77
2022/02/24 00:56:50;;;;;;;7.65;4.47;;;;;;;;;;524216;28;1191;-76
2022/02/24 00:57:06;;;;;;;6.83;4.23;;;;;;;;;;526134;28;906;-77
2022/02/24 00:57:21;;;;;;;8.20;4.37;;;;;;;;;;523650;28;1135;-76
2022/02/24 00:57:36;;;;;;;8.80;4.60;;;;;;;;;;521784;28;1137;-77
2022/02/24 00:57:52;;;;;;;8.27;4.80;;;;;;;;;;521884;28;1206;-76
2022/02/24 00:58:07;;;;;;;8.23;4.53;;;;;;;;;;523943;28;1119;-76
2022/02/24 00:58:26;;;;;;;8.17;4.43;;;;;;;;;;523887;28;1144;-76
2022/02/24 00:58:41;;;;;;;7.95;4.50;;;;;;;;;;521941;28;1610;-76
2022/02/24 00:58:57;;;;;;;8.07;4.60;;;;;;;;;;522053;28;1183;-76
2022/02/24 00:59:12;;;;;;;8.33;4.50;;;;;;;;;;521366;28;1282;-76
2022/02/24 00:59:27;;;;;;;8.23;4.50;;;;;;;;;;521646;28;869;-75
2022/02/24 00:59:43;;;;;;;7.90;4.50;;;;;;;;;;524063;28;1158;-75
2022/02/24 00:59:58;;;;;;;8.23;4.40;;;;;;;;;;523150;28;931;-75
2022/02/24 01:00:13;;;;;;;8.63;4.50;;;;;;;;;;523030;28;1552;-75
2022/02/24 01:00:29;;;;;;;8.03;4.40;;;;;;;;;;522140;28;1223;-75
2022/02/24 01:00:44;;;;;;;7.93;4.40;;;;;;;;;;522271;28;1124;-76
2022/02/24 01:00:59;;;;;;;7.87;4.60;;;;;;;;;;522303;28;1211;-75
2022/02/24 01:01:15;;;;;;;7.07;4.43;;;;;;;;;;526051;28;966;-76
2022/02/24 01:01:30;;;;;;;7.00;4.47;;;;;;;;;;523204;28;1223;-75
2022/02/24 01:01:45;;;;;;;6.37;4.30;;;;;;;;;;521781;28;1132;-76
2022/02/24 01:02:01;;;;;;;6.47;4.30;;;;;;;;;;519688;28;1382;-77
2022/02/24 01:02:16;;;;;;;7.95;4.40;;;;;;;;;;518676;28;780;-76
2022/02/24 01:02:31;;;;;;;8.17;4.30;;;;;;;;;;519922;28;1161;-77
2022/02/24 01:02:47;;;;;;;8.20;4.33;;;;;;;;;;519696;28;1165;-76
2022/02/24 01:03:02;;;;;;;8.65;4.38;;;;;;;;;;519770;28;919;-76
2022/02/24 01:03:17;;;;;;;7.97;4.27;;;;;;;;;;519948;28;843;-76
2022/02/24 01:03:33;;;;;;;7.67;4.00;;;;;;;;;;519662;28;1187;-76
2022/02/24 01:03:48;;;;;;;7.55;3.92;;;;;;;;;;522035;28;895;-75
2022/02/24 01:04:03;;;;;;;7.27;4.17;;;;;;;;;;523777;28;819;-77
2022/02/24 01:04:19;;;;;;;7.63;4.30;;;;;;;;;;523692;28;1154;-77
2022/02/24 01:04:34;;;;;;;7.38;4.40;;;;;;;;;;526107;28;795;-76
2022/02/24 01:04:49;;;;;;;7.70;4.40;;;;;;;;;;527926;28;1913;-77
2022/02/24 01:05:05;;;;;;;9.13;4.40;;;;;;;;;;525882;28;1539;-76
2022/02/24 01:05:20;;;;;;;8.70;4.38;;;;;;;;;;528053;28;891;-77
2022/02/24 01:05:36;;;;;;;8.43;4.40;;;;;;;;;;525633;28;1254;-77
2022/02/24 01:05:52;;;;;;;8.57;4.40;;;;;;;;;;525466;28;965;-76
2022/02/24 01:06:07;;;;;;;7.13;4.40;;;;;;;;;;525203;28;931;-77
2022/02/24 01:06:22;;;;;;;8.10;4.40;;;;;;;;;;524104;28;923;-76
2022/02/24 01:06:38;;;;;;;8.97;4.40;;;;;;;;;;521752;28;1293;-75
2022/02/24 01:06:53;;;;;;;7.95;4.32;;;;;;;;;;522222;28;1302;-76
2022/02/24 01:07:08;;;;;;;7.80;4.40;;;;;;;;;;524253;28;736;-74
2022/02/24 01:07:23;;;;;;;8.60;4.50;;;;;;;;;;526462;28;903;-76
2022/02/24 01:07:39;;;;;;;8.45;4.47;;;;;;;;;;525657;28;1213;-76
2022/02/24 01:07:55;;;;;;;7.73;4.23;;;;;;;;;;523689;28;1293;-76
2022/02/24 01:08:10;;;;;;;8.05;4.40;;;;;;;;;;523878;28;1165;-76
2022/02/24 01:08:25;;;;;;;8.73;4.90;;;;;;;;;;523968;28;823;-75
2022/02/24 01:08:40;;;;;;;8.90;4.90;;;;;;;;;;522046;28;1353;-76
2022/02/24 01:08:56;;;;;;;9.25;4.72;;;;;;;;;;520003;28;1452;-76
2022/02/24 01:09:11;;;;;;;9.17;4.90;;;;;;;;;;519590;28;764;-76
2022/02/24 01:09:26;;;;;;;9.43;4.97;;;;;;;;;;519741;28;1257;-76
2022/02/24 01:09:42;;;;;;;8.48;4.75;;;;;;;;;;519906;28;808;-75
2022/02/24 01:09:57;;;;;;;7.97;4.77;;;;;;;;;;519133;28;1327;-76
2022/02/24 01:10:12;;;;;;;9.67;5.00;;;;;;;;;;519855;28;1520;-75
2022/02/24 01:10:28;;;;;;;8.85;4.90;;;;;;;;;;521533;28;851;-76
2022/02/24 01:10:43;;;;;;;8.37;4.97;;;;;;;;;;521989;28;729;-75
2022/02/24 01:10:58;;;;;;;9.27;5.10;;;;;;;;;;523815;28;832;-76
2022/02/24 01:11:14;;;;;;;8.73;5.10;;;;;;;;;;523407;28;1298;-75
2022/02/24 01:11:30;;;;;;;8.18;4.88;;;;;;;;;;523836;28;1193;-76
2022/02/24 01:11:45;;;;;;;8.53;4.80;;;;;;;;;;521987;28;1182;-76
2022/02/24 01:12:01;;;;;;;9.13;5.10;;;;;;;;;;523583;28;859;-77
2022/02/24 01:12:16;;;;;;;7.97;5.10;;;;;;;;;;523986;28;816;-76
2022/02/24 01:12:32;;;;;;;7.83;5.00;;;;;;;;;;521911;28;1135;-77
2022/02/24 01:12:47;;;;;;;9.02;4.90;;;;;;;;;;521766;28;894;-76
2022/02/24 01:13:02;;;;;;;9.63;4.80;;;;;;;;;;522284;28;915;-76
2022/02/24 01:13:18;;;;;;;9.10;4.90;;;;;;;;;;522126;28;1199;-75
2022/02/24 01:13:33;;;;;;;8.32;4.80;;;;;;;;;;522105;28;1305;-77
2022/02/24 01:13:49;;;;;;;9.27;5.17;;;;;;;;;;524045;28;728;-76
2022/02/24 01:14:04;;;;;;;10.33;5.50;;;;;;;;;;523298;28;848;-76
2022/02/24 01:14:19;;;;;;;9.85;5.20;;;;;;;;;;524070;28;966;-76
2022/02/24 01:14:36;;;;;;;9.83;5.30;;;;;;;;;;523970;28;1502;-76
2022/02/24 01:14:51;;;;;;;9.30;5.60;;;;;;;;;;523936;28;792;-76
2022/02/24 01:15:08;;;;;;;8.55;5.32;;;;;;;;;;521506;28;1497;-77
2022/02/24 01:15:23;;;;;;;8.85;5.03;;;;;;;;;;523134;28;862;-76
2022/02/24 01:15:42;;;;;;;9.60;5.17;;;;;;;;;;522981;28;1305;-75
2022/02/24 01:15:57;;;;;;;9.02;5.10;;;;;;;;;;523820;28;865;-75
2022/02/24 01:16:12;;;;;;;9.55;5.30;;;;;;;;;;521411;28;1271;-75
2022/02/24 01:16:27;;;;;;;9.83;5.10;;;;;;;;;;520634;28;844;-76
2022/02/24 01:16:43;;;;;;;9.53;5.10;;;;;;;;;;521083;28;1351;-75
2022/02/24 01:16:58;;;;;;;9.87;5.20;;;;;;;;;;521878;28;1326;-76
2022/02/24 01:17:13;;;;;;;9.25;5.00;;;;;;;;;;523963;28;871;-76
2022/02/24 01:17:30;;;;;;;8.27;4.80;;;;;;;;;;522335;28;1559;-75
2022/02/24 01:17:45;;;;;;;7.63;4.90;;;;;;;;;;524053;28;835;-76
2022/02/24 01:18:00;;;;;;;8.18;5.00;;;;;;;;;;524126;28;780;-77
2022/02/24 01:18:15;;;;;;;8.37;5.10;;;;;;;;;;525971;28;1411;-76
2022/02/24 01:18:31;;;;;;;7.57;5.00;;;;;;;;;;527960;28;1117;-77
2022/02/24 01:18:46;;;;;;;8.63;4.95;;;;;;;;;;524325;28;1310;-76
2022/02/24 01:19:01;;;;;;;8.80;5.13;;;;;;;;;;526078;28;842;-77
2022/02/24 01:19:17;;;;;;;8.83;5.20;;;;;;;;;;525633;28;839;-77
2022/02/24 01:19:32;;;;;;;9.32;5.28;;;;;;;;;;526086;28;831;-77
2022/02/24 01:19:48;;;;;;;8.90;5.10;;;;;;;;;;526059;28;756;-76
2022/02/24 01:20:05;;;;;;;9.82;4.78;;;;;;;;;;525602;28;1515;-77
2022/02/24 01:20:20;;;;;;;9.65;4.80;;;;;;;;;;526737;28;1220;-77
2022/02/24 01:20:36;;;;;;;8.77;4.80;;;;;;;;;;525237;28;1233;-77
2022/02/24 01:20:52;;;;;;;9.02;4.78;;;;;;;;;;528362;28;732;-77
2022/02/24 01:21:07;;;;;;;10.85;5.00;;;;;;;;;;525261;28;1338;-76
2022/02/24 01:21:22;;;;;;;10.53;5.00;;;;;;;;;;522152;28;1357;-77
2022/02/24 01:21:37;;;;;;;7.77;4.70;;;;;;;;;;521912;28;1229;-76
2022/02/24 01:21:53;;;;;;;8.30;4.82;;;;;;;;;;522169;28;957;-76
2022/02/24 01:22:08;;;;;;;9.27;5.03;;;;;;;;;;522341;28;788;-77
2022/02/24 01:22:24;;;;;;;7.80;4.90;;;;;;;;;;524078;28;895;-75
2022/02/24 01:22:39;;;;;;;6.80;4.63;;;;;;;;;;526170;28;977;-76
2022/02/24 01:22:54;;;;;;;7.20;4.50;;;;;;;;;;526229;28;1521;-76
2022/02/24 01:23:10;;;;;;;6.93;4.45;;;;;;;;;;526086;28;1377;-75
2022/02/24 01:23:25;;;;;;;7.20;4.50;;;;;;;;;;526523;28;814;-75
2022/02/24 01:23:41;;;;;;;7.72;4.38;;;;;;;;;;526189;28;1138;-76
2022/02/24 01:23:56;;;;;;;7.47;4.30;;;;;;;;;;526216;28;1306;-75
2022/02/24 01:24:11;;;;;;;7.13;4.50;;;;;;;;;;523735;28;1179;-76
2022/02/24 01:24:27;;;;;;;8.05;4.70;;;;;;;;;;523731;28;1579;-76
2022/02/24 01:24:42;;;;;;;8.93;4.77;;;;;;;;;;524100;28;724;-76
2022/02/24 01:24:58;;;;;;;8.38;4.70;;;;;;;;;;523245;28;1914;-76
2022/02/24 01:25:13;;;;;;;8.47;4.80;;;;;;;;;;523372;28;1490;-76
2022/02/24 01:25:29;;;;;;;7.93;4.70;;;;;;;;;;521818;28;1183;-77
2022/02/24 01:25:44;;;;;;;8.93;4.73;;;;;;;;;;521763;28;822;-76
2022/02/24 01:25:59;;;;;;;10.57;4.70;;;;;;;;;;524115;28;930;-76
2022/02/24 01:26:15;;;;;;;10.10;4.55;;;;;;;;;;524616;28;735;-75
2022/02/24 01:26:30;;;;;;;8.10;4.23;;;;;;;;;;525703;28;911;-76
2022/02/24 01:26:45;;;;;;;8.27;4.00;;;;;;;;;;526070;28;791;-76
2022/02/24 01:27:01;;;;;;;9.20;4.15;;;;;;;;;;525937;28;1194;-77
2022/02/24 01:27:16;;;;;;;7.90;4.20;;;;;;;;;;527291;28;781;-78
2022/02/24 01:27:31;;;;;;;7.17;4.30;;;;;;;;;;528289;28;787;-77
2022/02/24 01:27:47;;;;;;;6.93;4.25;;;;;;;;;;527862;28;1154;-77
2022/02/24 01:28:02;;;;;;;7.87;4.20;;;;;;;;;;528281;28;899;-76
2022/02/24 01:28:18;;;;;;;7.57;4.15;;;;;;;;;;528229;28;1043;-76
2022/02/24 01:28:33;;;;;;;7.72;4.40;;;;;;;;;;527879;28;859;-77
2022/02/24 01:28:49;;;;;;;7.93;4.40;;;;;;;;;;527910;28;720;-77
2022/02/24 01:29:05;;;;;;;7.25;4.32;;;;;;;;;;527848;28;1346;-76
2022/02/24 01:29:20;;;;;;;8.17;4.40;;;;;;;;;;527363;28;1352;-77
2022/02/24 01:29:35;;;;;;;8.87;4.43;;;;;;;;;;528047;28;898;-77
2022/02/24 01:29:50;;;;;;;8.35;4.57;;;;;;;;;;527824;28;736;-76
2022/02/24 01:30:06;;;;;;;7.27;4.30;;;;;;;;;;526807;28;1502;-76
2022/02/24 01:30:21;;;;;;;7.15;4.15;;;;;;;;;;525023;28;1433;-77
2022/02/24 01:30:37;;;;;;;7.27;4.30;;;;;;;;;;524589;28;946;-76
2022/02/24 01:30:52;;;;;;;8.25;4.60;;;;;;;;;;525847;28;1231;-77
2022/02/24 01:31:07;;;;;;;8.97;4.63;;;;;;;;;;524669;28;1349;-76
2022/02/24 01:31:23;;;;;;;9.63;4.63;;;;;;;;;;524116;28;767;-76
2022/02/24 01:31:39;;;;;;;8.00;4.22;;;;;;;;;;523937;28;1337;-76
2022/02/24 01:31:54;;;;;;;7.68;4.25;;;;;;;;;;524116;28;772;-76
2022/02/24 01:32:10;;;;;;;8.17;4.60;;;;;;;;;;523834;28;1218;-76
2022/02/24 01:32:25;;;;;;;8.00;4.55;;;;;;;;;;523903;28;736;-77
2022/02/24 01:32:41;;;;;;;8.50;4.40;;;;;;;;;;523809;28;1250;-76
2022/02/24 01:32:56;;;;;;;7.55;4.28;;;;;;;;;;523784;28;752;-76
2022/02/24 01:33:11;;;;;;;7.53;4.33;;;;;;;;;;524157;28;926;-76
2022/02/24 01:33:27;;;;;;;7.43;4.53;;;;;;;;;;524132;28;738;-76
2022/02/24 01:33:42;;;;;;;7.68;4.68;;;;;;;;;;522101;28;1291;-76
2022/02/24 01:33:57;;;;;;;8.67;4.70;;;;;;;;;;522353;28;808;-76
2022/02/24 01:34:13;;;;;;;7.40;4.27;;;;;;;;;;523804;28;752;-77
2022/02/24 01:34:28;;;;;;;7.82;4.40;;;;;;;;;;524377;28;768;-76
2022/02/24 01:34:43;;;;;;;9.20;4.63;;;;;;;;;;523977;28;1163;-76
2022/02/24 01:35:01;;;;;;;7.83;4.30;;;;;;;;;;523672;28;1433;-77
2022/02/24 01:35:16;;;;;;;7.00;4.05;;;;;;;;;;522501;28;1286;-76
2022/02/24 01:35:31;;;;;;;8.43;4.53;;;;;;;;;;524298;28;780;-76
2022/02/24 01:35:46;;;;;;;8.60;4.70;;;;;;;;;;521638;28;1183;-77
2022/02/24 01:36:02;;;;;;;7.30;4.33;;;;;;;;;;522077;28;942;-76
2022/02/24 01:36:17;;;;;;;6.43;4.28;;;;;;;;;;523794;28;812;-75